createdAt,value
2018-10-03T00:00:47.059Z,14.90
2018-10-03T00:03:15.881Z,14.90
2018-10-03T00:05:44.709Z,14.90
2018-10-03T00:08:13.526Z,14.90
2018-10-03T00:10:42.695Z,14.90
2018-10-03T00:13:11.528Z,14.90
2018-10-03T00:15:40.379Z,14.90
2018-10-03T00:18:09.202Z,14.90
2018-10-03T00:20:38.023Z,14.90
2018-10-03T00:23:07.094Z,15.00
2018-10-03T00:25:51.094Z,14.90
2018-10-03T00:28:19.898Z,14.90
2018-10-03T00:30:48.722Z,14.90
2018-10-03T00:33:17.545Z,14.90
2018-10-03T00:35:46.366Z,14.90
2018-10-03T00:38:15.286Z,14.90
2018-10-03T00:40:44.109Z,14.90
2018-10-03T00:43:12.912Z,14.90
2018-10-03T00:45:41.729Z,14.80
2018-10-03T00:48:10.890Z,14.80
2018-10-03T00:50:39.701Z,14.80
2018-10-03T00:53:08.534Z,14.80
2018-10-03T00:55:37.363Z,14.80
2018-10-03T00:58:06.636Z,14.80
2018-10-03T01:00:35.478Z,14.80
2018-10-03T01:03:04.308Z,14.70
2018-10-03T01:05:33.112Z,14.70
2018-10-03T01:08:01.911Z,14.70
2018-10-03T01:10:31.129Z,14.70
2018-10-03T01:12:59.930Z,14.60
2018-10-03T01:15:28.749Z,14.60
2018-10-03T01:17:57.603Z,14.70
2018-10-03T01:20:26.483Z,14.60
2018-10-03T01:22:55.293Z,14.70
2018-10-03T01:25:24.130Z,14.70
2018-10-03T01:27:52.941Z,14.70
2018-10-03T01:30:21.747Z,14.70
2018-10-03T01:32:50.838Z,14.60
2018-10-03T01:35:19.639Z,14.60
2018-10-03T01:37:48.465Z,14.60
2018-10-03T01:40:17.301Z,14.60
2018-10-03T01:42:46.126Z,14.60
2018-10-03T01:45:14.950Z,14.60
2018-10-03T01:47:43.806Z,14.60
2018-10-03T01:50:12.619Z,14.50
2018-10-03T01:52:41.439Z,14.50
2018-10-03T01:55:10.995Z,14.40
2018-10-03T01:57:39.763Z,14.40
2018-10-03T02:00:09.583Z,14.30
2018-10-03T02:02:38.405Z,14.30
2018-10-03T02:05:07.490Z,14.30
2018-10-03T02:07:36.315Z,14.20
2018-10-03T02:10:05.126Z,14.20
2018-10-03T02:12:33.925Z,14.20
2018-10-03T02:15:02.764Z,14.10
2018-10-03T02:17:32.024Z,14.10
2018-10-03T02:20:00.822Z,14.10
2018-10-03T02:22:29.611Z,14.10
2018-10-03T02:24:58.450Z,14.00
2018-10-03T02:27:27.290Z,14.00
2018-10-03T02:29:56.091Z,14.00
2018-10-03T02:32:24.922Z,14.00
2018-10-03T02:34:53.744Z,14.00
2018-10-03T02:37:22.585Z,14.00
2018-10-03T02:39:51.834Z,14.00
2018-10-03T02:42:20.638Z,14.00
2018-10-03T02:44:49.433Z,14.00
2018-10-03T02:47:18.322Z,13.90
2018-10-03T02:49:47.127Z,13.90
2018-10-03T02:52:15.950Z,13.90
2018-10-03T02:54:44.770Z,13.90
2018-10-03T02:57:13.592Z,13.90
2018-10-03T02:59:42.446Z,13.90
2018-10-03T03:02:12.258Z,13.90
2018-10-03T03:04:41.051Z,14.00
2018-10-03T03:07:09.841Z,13.90
2018-10-03T03:09:38.702Z,13.90
2018-10-03T03:12:07.772Z,14.00
2018-10-03T03:14:36.615Z,14.00
2018-10-03T03:17:05.459Z,14.00
2018-10-03T03:19:34.246Z,14.00
2018-10-03T03:22:03.054Z,14.00
2018-10-03T03:24:32.149Z,14.00
2018-10-03T03:27:00.986Z,14.00
2018-10-03T03:29:29.799Z,14.00
2018-10-03T03:31:58.627Z,14.00
2018-10-03T03:34:27.475Z,14.00
2018-10-03T03:36:56.310Z,14.00
2018-10-03T03:39:25.121Z,14.00
2018-10-03T03:41:53.929Z,14.00
2018-10-03T03:44:22.717Z,14.00
2018-10-03T03:46:51.987Z,14.00
2018-10-03T03:49:29.865Z,14.00
2018-10-03T03:51:58.771Z,14.00
2018-10-03T03:54:27.585Z,14.00
2018-10-03T03:56:56.382Z,14.00
2018-10-03T03:59:31.800Z,14.00
2018-10-03T04:02:00.610Z,14.00
2018-10-03T04:04:29.905Z,14.00
2018-10-03T04:06:59.298Z,14.00
2018-10-03T04:09:28.131Z,14.00
2018-10-03T04:11:56.959Z,14.00
2018-10-03T04:14:25.787Z,14.00
2018-10-03T04:16:54.611Z,14.00
2018-10-03T04:19:23.647Z,14.00
2018-10-03T04:21:52.518Z,14.00
2018-10-03T04:24:21.329Z,14.00
2018-10-03T04:26:50.159Z,14.00
2018-10-03T04:29:19.227Z,14.00
2018-10-03T04:31:48.028Z,14.00
2018-10-03T04:34:16.889Z,14.00
2018-10-03T04:36:45.725Z,14.00
2018-10-03T04:39:14.547Z,14.00
2018-10-03T04:41:43.381Z,14.00
2018-10-03T04:44:12.219Z,14.00
2018-10-03T04:46:41.046Z,14.00
2018-10-03T04:49:09.982Z,14.00
2018-10-03T04:51:39.113Z,14.00
2018-10-03T04:54:07.943Z,14.00
2018-10-03T04:56:36.779Z,14.00
2018-10-03T04:59:05.920Z,14.00
2018-10-03T05:01:34.733Z,14.10
2018-10-03T05:04:03.586Z,14.10
2018-10-03T05:06:33.042Z,14.10
2018-10-03T05:09:01.975Z,14.10
2018-10-03T05:11:30.848Z,14.00
2018-10-03T05:14:00.214Z,14.00
2018-10-03T05:16:29.013Z,14.00
2018-10-03T05:18:57.826Z,14.00
2018-10-03T05:21:26.641Z,14.00
2018-10-03T05:23:55.453Z,14.00
2018-10-03T05:26:24.273Z,14.00
2018-10-03T05:28:53.084Z,14.00
2018-10-03T05:31:22.003Z,14.00
2018-10-03T05:33:50.803Z,14.00
2018-10-03T05:36:20.185Z,14.00
2018-10-03T05:38:49.017Z,14.00
2018-10-03T05:41:17.866Z,14.00
2018-10-03T05:43:46.705Z,14.10
2018-10-03T05:46:15.551Z,14.10
2018-10-03T05:48:44.417Z,14.00
2018-10-03T05:51:13.204Z,14.00
2018-10-03T05:53:42.035Z,14.10
2018-10-03T05:56:10.855Z,14.10
2018-10-03T05:58:40.002Z,14.10
2018-10-03T06:01:08.830Z,14.10
2018-10-03T06:03:37.692Z,14.10
2018-10-03T06:06:07.379Z,14.10
2018-10-03T06:08:36.719Z,14.10
2018-10-03T06:11:05.563Z,14.10
2018-10-03T06:13:34.381Z,14.10
2018-10-03T06:16:03.201Z,14.10
2018-10-03T06:18:32.050Z,14.10
2018-10-03T06:21:01.187Z,14.10
2018-10-03T06:23:30.055Z,14.20
2018-10-03T06:25:58.918Z,14.20
2018-10-03T06:28:27.790Z,14.10
2018-10-03T06:30:56.623Z,14.10
2018-10-03T06:33:26.192Z,14.10
2018-10-03T06:35:55.030Z,14.20
2018-10-03T06:38:23.853Z,14.20
2018-10-03T06:40:52.712Z,14.20
2018-10-03T06:43:21.991Z,14.20
2018-10-03T06:45:50.946Z,14.20
2018-10-03T06:48:19.762Z,14.20
2018-10-03T06:50:48.612Z,14.30
2018-10-03T06:53:20.584Z,14.30
2018-10-03T06:55:49.422Z,14.30
2018-10-03T06:58:18.254Z,14.40
2018-10-03T07:00:47.056Z,14.40
2018-10-03T07:03:16.301Z,14.40
2018-10-03T07:05:45.195Z,14.40
2018-10-03T07:08:13.992Z,14.40
2018-10-03T07:10:43.332Z,14.30
2018-10-03T07:13:12.244Z,14.30
2018-10-03T07:15:41.055Z,14.30
2018-10-03T07:18:09.893Z,14.30
2018-10-03T07:20:38.742Z,14.20
2018-10-03T07:23:07.634Z,14.20
2018-10-03T07:25:36.823Z,14.20
2018-10-03T07:28:05.761Z,14.30
2018-10-03T07:30:34.611Z,14.30
2018-10-03T07:33:03.475Z,14.30
2018-10-03T07:35:32.299Z,14.30
2018-10-03T07:38:01.118Z,14.40
2018-10-03T07:40:29.966Z,14.40
2018-10-03T07:42:58.810Z,14.40
2018-10-03T07:45:27.660Z,14.50
2018-10-03T07:47:56.949Z,14.50
2018-10-03T07:50:25.770Z,14.60
2018-10-03T07:52:54.614Z,14.60
2018-10-03T07:55:23.455Z,14.60
2018-10-03T07:57:52.301Z,14.70
2018-10-03T08:00:28.004Z,14.70
2018-10-03T08:02:57.347Z,14.70
2018-10-03T08:05:26.451Z,14.80
2018-10-03T08:07:55.737Z,14.80
2018-10-03T08:10:24.563Z,14.80
2018-10-03T08:12:53.851Z,14.80
2018-10-03T08:15:22.705Z,14.90
2018-10-03T08:17:51.637Z,14.90
2018-10-03T08:20:20.503Z,15.00
2018-10-03T08:22:49.308Z,15.10
2018-10-03T08:25:18.108Z,15.10
2018-10-03T08:27:47.175Z,15.20
2018-10-03T08:30:16.493Z,15.20
2018-10-03T08:32:45.761Z,15.30
2018-10-03T08:35:14.380Z,15.40
2018-10-03T08:37:49.880Z,15.40
2018-10-03T08:40:18.704Z,15.50
2018-10-03T08:42:53.984Z,15.50
2018-10-03T08:45:22.809Z,15.50
2018-10-03T08:47:51.643Z,15.50
2018-10-03T08:50:20.710Z,15.50
2018-10-03T08:52:49.590Z,15.50
2018-10-03T08:55:18.384Z,15.40
2018-10-03T08:57:47.237Z,15.40
2018-10-03T09:00:16.076Z,15.50
2018-10-03T09:02:44.967Z,15.40
2018-10-03T09:05:14.175Z,15.40
2018-10-03T09:07:42.982Z,15.50
2018-10-03T09:10:11.905Z,15.50
2018-10-03T09:12:41.043Z,15.50
2018-10-03T09:15:10.391Z,15.50
2018-10-03T09:17:39.195Z,15.60
2018-10-03T09:20:08.521Z,15.60
2018-10-03T09:22:37.328Z,15.60
2018-10-03T09:25:07.031Z,15.60
2018-10-03T09:27:35.972Z,15.60
2018-10-03T09:30:04.798Z,15.60
2018-10-03T09:32:33.633Z,15.60
2018-10-03T09:35:03.155Z,15.60
2018-10-03T09:37:31.973Z,15.60
2018-10-03T09:40:00.820Z,15.70
2018-10-03T09:42:29.628Z,15.70
2018-10-03T09:44:58.446Z,15.70
2018-10-03T09:47:27.284Z,15.70
2018-10-03T09:49:56.106Z,15.80
2018-10-03T09:52:24.939Z,15.80
2018-10-03T09:54:53.875Z,15.80
2018-10-03T09:57:23.067Z,15.90
2018-10-03T09:59:51.891Z,15.90
2018-10-03T10:02:20.727Z,15.90
2018-10-03T10:04:49.559Z,16.00
2018-10-03T10:07:18.378Z,16.00
2018-10-03T10:09:47.196Z,16.00
2018-10-03T10:12:16.038Z,16.10
2018-10-03T10:14:44.831Z,16.10
2018-10-03T10:17:13.981Z,16.10
2018-10-03T10:19:43.138Z,16.20
2018-10-03T10:22:11.984Z,16.20
2018-10-03T10:24:40.783Z,16.20
2018-10-03T10:27:09.640Z,16.20
2018-10-03T10:29:38.497Z,16.20
2018-10-03T10:32:07.581Z,16.30
2018-10-03T10:34:36.375Z,16.30
2018-10-03T10:37:05.268Z,16.30
2018-10-03T10:39:34.116Z,16.30
2018-10-03T10:42:03.189Z,16.40
2018-10-03T10:44:32.019Z,16.40
2018-10-03T10:47:00.833Z,16.50
2018-10-03T10:49:29.677Z,16.50
2018-10-03T10:51:58.516Z,16.50
2018-10-03T10:54:27.324Z,16.60
2018-10-03T10:56:56.162Z,16.60
2018-10-03T10:59:24.977Z,16.60
2018-10-03T11:01:53.815Z,16.70
2018-10-03T11:04:23.127Z,16.60
2018-10-03T11:06:51.995Z,16.50
2018-10-03T11:09:20.822Z,16.40
2018-10-03T11:11:49.655Z,16.30
2018-10-03T11:14:18.475Z,16.10
2018-10-03T11:16:47.324Z,15.90
2018-10-03T11:19:16.751Z,15.70
2018-10-03T11:21:45.570Z,15.70
2018-10-03T11:24:14.554Z,15.60
2018-10-03T11:26:43.495Z,15.50
2018-10-03T11:29:12.312Z,15.40
2018-10-03T11:31:41.155Z,15.40
2018-10-03T11:34:09.996Z,15.40
2018-10-03T11:36:38.885Z,15.30
2018-10-03T11:39:09.377Z,15.30
2018-10-03T11:41:38.267Z,15.20
2018-10-03T11:44:07.131Z,15.20
2018-10-03T11:46:35.990Z,15.20
2018-10-03T11:49:05.362Z,15.20
2018-10-03T11:51:34.226Z,15.30
2018-10-03T11:54:03.032Z,15.40
2018-10-03T11:56:31.890Z,15.40
2018-10-03T11:59:03.774Z,15.50
2018-10-03T12:01:32.619Z,15.60
2018-10-03T12:04:01.424Z,15.70
2018-10-03T12:06:30.264Z,15.80
2018-10-03T12:08:59.574Z,15.80
2018-10-03T12:11:28.384Z,15.90
2018-10-03T12:13:57.219Z,15.90
2018-10-03T12:16:26.070Z,15.90
2018-10-03T12:18:54.943Z,15.90
2018-10-03T12:21:24.193Z,15.90
2018-10-03T12:23:53.065Z,15.90
2018-10-03T12:26:21.924Z,16.00
2018-10-03T12:28:50.746Z,16.00
2018-10-03T12:31:20.007Z,16.10
2018-10-03T12:33:48.915Z,16.20
2018-10-03T12:36:17.736Z,16.30
2018-10-03T12:38:46.541Z,16.40
2018-10-03T12:41:15.359Z,16.50
2018-10-03T12:43:44.385Z,16.50
2018-10-03T12:46:14.057Z,16.40
2018-10-03T12:48:42.868Z,16.30
2018-10-03T12:51:11.678Z,16.20
2018-10-03T12:53:40.849Z,16.10
2018-10-03T12:56:09.933Z,16.10
2018-10-03T12:58:38.815Z,16.10
2018-10-03T13:01:07.701Z,16.10
2018-10-03T13:03:36.481Z,16.20
2018-10-03T13:06:05.308Z,16.30
2018-10-03T13:08:34.136Z,16.30
2018-10-03T13:11:03.020Z,16.50
2018-10-03T13:13:31.813Z,16.60
2018-10-03T13:16:01.164Z,16.70
2018-10-03T13:18:29.975Z,16.80
2018-10-03T13:20:58.769Z,16.90
2018-10-03T13:23:28.063Z,17.00
2018-10-03T13:25:56.939Z,17.00
2018-10-03T13:28:25.831Z,17.10
2018-10-03T13:30:54.939Z,17.10
2018-10-03T13:33:23.751Z,17.20
2018-10-03T13:35:52.637Z,17.20
2018-10-03T13:38:21.828Z,17.20
2018-10-03T13:40:50.699Z,17.30
2018-10-03T13:43:19.516Z,17.40
2018-10-03T13:45:48.365Z,17.40
2018-10-03T13:48:17.190Z,17.40
2018-10-03T13:50:46.048Z,17.50
2018-10-03T13:53:14.891Z,17.50
2018-10-03T13:55:43.755Z,17.50
2018-10-03T13:58:12.603Z,17.60
2018-10-03T14:00:41.824Z,17.60
2018-10-03T14:03:10.645Z,17.60
2018-10-03T14:05:39.606Z,17.70
2018-10-03T14:08:08.424Z,17.70
2018-10-03T14:10:37.259Z,17.70
2018-10-03T14:13:06.097Z,17.80
2018-10-03T14:15:34.962Z,17.80
2018-10-03T14:18:03.817Z,17.80
2018-10-03T14:20:32.684Z,17.80
2018-10-03T14:23:01.843Z,17.70
2018-10-03T14:25:31.042Z,17.70
2018-10-03T14:27:59.848Z,17.70
2018-10-03T14:30:28.677Z,17.70
2018-10-03T14:32:57.970Z,17.70
2018-10-03T14:35:26.714Z,17.70
2018-10-03T14:37:55.536Z,17.70
2018-10-03T14:40:24.426Z,17.60
2018-10-03T14:42:53.242Z,17.60
2018-10-03T14:45:22.470Z,17.60
2018-10-03T14:47:51.384Z,17.50
2018-10-03T14:50:20.165Z,17.50
2018-10-03T14:52:48.986Z,17.50
2018-10-03T14:55:17.851Z,17.40
2018-10-03T14:57:46.655Z,17.40
2018-10-03T15:00:15.709Z,17.40
2018-10-03T15:02:44.625Z,17.40
2018-10-03T15:05:13.427Z,17.40
2018-10-03T15:07:42.494Z,17.40
2018-10-03T15:10:11.509Z,17.40
2018-10-03T15:12:40.339Z,17.40
2018-10-03T15:15:09.498Z,17.40
2018-10-03T15:17:38.320Z,17.40
2018-10-03T15:20:08.402Z,17.40
2018-10-03T15:22:37.383Z,17.30
2018-10-03T15:25:06.216Z,17.30
2018-10-03T15:27:35.556Z,17.30
2018-10-03T15:30:04.785Z,17.30
2018-10-03T15:32:33.562Z,17.30
2018-10-03T15:35:02.394Z,17.30
2018-10-03T15:37:31.243Z,17.30
2018-10-03T15:40:00.078Z,17.30
2018-10-03T15:42:28.916Z,17.20
2018-10-03T15:44:57.780Z,17.20
2018-10-03T15:47:26.673Z,17.20
2018-10-03T15:49:55.495Z,17.20
2018-10-03T15:52:24.341Z,17.10
2018-10-03T15:54:53.213Z,17.10
2018-10-03T15:57:22.014Z,17.10
2018-10-03T15:59:50.818Z,17.10
2018-10-03T16:02:19.680Z,17.00
2018-10-03T16:04:48.531Z,17.00
2018-10-03T16:07:17.866Z,17.00
2018-10-03T16:09:46.740Z,17.00
2018-10-03T16:12:15.575Z,17.00
2018-10-03T16:14:44.452Z,16.90
2018-10-03T16:17:13.317Z,16.90
2018-10-03T16:19:42.124Z,16.90
2018-10-03T16:22:10.962Z,16.90
2018-10-03T16:24:39.811Z,16.80
2018-10-03T16:27:08.626Z,16.80
2018-10-03T16:29:38.549Z,16.80
2018-10-03T16:32:07.429Z,16.70
2018-10-03T16:34:36.252Z,16.70
2018-10-03T16:37:05.209Z,16.70
2018-10-03T16:39:34.007Z,16.60
2018-10-03T16:42:02.830Z,16.60
2018-10-03T16:44:31.667Z,16.60
2018-10-03T16:47:00.495Z,16.50
2018-10-03T16:49:29.295Z,16.50
2018-10-03T16:51:58.244Z,16.50
2018-10-03T16:54:27.071Z,16.50
2018-10-03T16:56:55.885Z,16.40
2018-10-03T16:59:24.800Z,16.40
2018-10-03T17:01:53.648Z,16.30
2018-10-03T17:04:22.556Z,16.30
2018-10-03T17:06:51.449Z,16.30
2018-10-03T17:09:20.335Z,16.20
2018-10-03T17:11:49.200Z,16.20
2018-10-03T17:14:32.496Z,16.20
2018-10-03T17:17:01.341Z,16.10
2018-10-03T17:19:30.155Z,16.10
2018-10-03T17:21:59.525Z,16.10
2018-10-03T17:24:29.642Z,16.00
2018-10-03T17:26:58.473Z,16.00
2018-10-03T17:29:27.334Z,16.00
2018-10-03T17:31:56.689Z,15.90
2018-10-03T17:34:25.507Z,15.90
2018-10-03T17:36:55.532Z,15.80
2018-10-03T17:39:25.220Z,15.80
2018-10-03T17:41:54.146Z,15.80
2018-10-03T17:44:23.406Z,15.70
2018-10-03T17:46:53.638Z,15.70
2018-10-03T17:49:22.553Z,15.70
2018-10-03T17:51:51.417Z,15.60
2018-10-03T17:54:20.259Z,15.60
2018-10-03T17:56:49.184Z,15.60
2018-10-03T17:59:18.587Z,15.50
2018-10-03T18:01:50.050Z,15.50
2018-10-03T18:04:18.868Z,15.40
2018-10-03T18:06:47.700Z,15.40
2018-10-03T18:09:16.565Z,15.40
2018-10-03T18:11:45.302Z,15.40
2018-10-03T18:14:14.109Z,15.30
2018-10-03T18:16:42.906Z,15.30
2018-10-03T18:19:11.683Z,15.30
2018-10-03T18:21:41.062Z,15.30
2018-10-03T18:24:09.933Z,15.30
2018-10-03T18:26:38.723Z,15.20
2018-10-03T18:29:07.542Z,15.20
2018-10-03T18:31:36.374Z,15.20
2018-10-03T18:34:05.686Z,15.20
2018-10-03T18:36:34.513Z,15.20
2018-10-03T18:39:03.607Z,15.10
2018-10-03T18:41:32.394Z,15.10
2018-10-03T18:44:01.421Z,15.10
2018-10-03T18:46:30.224Z,15.10
2018-10-03T18:48:58.997Z,15.10
2018-10-03T18:51:27.903Z,15.00
2018-10-03T18:53:56.734Z,15.00
2018-10-03T18:56:25.533Z,15.00
2018-10-03T18:58:54.344Z,15.00
2018-10-03T19:01:23.158Z,15.00
2018-10-03T19:03:51.965Z,15.00
2018-10-03T19:06:21.157Z,14.90
2018-10-03T19:09:29.846Z,14.90
2018-10-03T19:12:36.315Z,14.90
2018-10-03T19:15:42.780Z,14.90
2018-10-03T19:18:49.573Z,14.80
2018-10-03T19:21:56.122Z,14.80
2018-10-03T19:25:02.848Z,14.70
2018-10-03T19:28:09.853Z,14.70
2018-10-03T19:31:16.179Z,14.60
2018-10-03T19:34:22.520Z,14.60
2018-10-03T19:37:28.912Z,14.60
2018-10-03T19:40:35.271Z,14.50
2018-10-03T19:43:41.760Z,14.50
2018-10-03T19:46:48.348Z,14.50
2018-10-03T19:49:55.065Z,14.50
2018-10-03T19:53:01.913Z,14.40
2018-10-03T19:56:09.783Z,14.40
2018-10-03T19:59:16.455Z,14.40
2018-10-03T20:02:22.938Z,14.30
2018-10-03T20:05:29.035Z,14.30
2018-10-03T20:08:35.711Z,14.20
2018-10-03T20:11:42.499Z,14.20
2018-10-03T20:14:49.493Z,14.20
2018-10-03T20:17:55.811Z,14.20
2018-10-03T20:21:02.295Z,14.10
2018-10-03T20:24:09.291Z,14.10
2018-10-03T20:27:15.661Z,14.10
2018-10-03T20:30:21.917Z,14.10
2018-10-03T20:33:28.432Z,14.00
2018-10-03T20:36:34.864Z,14.00
2018-10-03T20:39:41.143Z,14.00
2018-10-03T20:42:48.114Z,14.00
2018-10-03T20:45:54.610Z,14.00
2018-10-03T20:49:00.957Z,14.00
2018-10-03T20:51:30.537Z,13.90
2018-10-03T20:53:59.389Z,13.90
2018-10-03T20:56:28.212Z,13.90
2018-10-03T20:58:57.017Z,13.90
2018-10-03T21:01:25.822Z,13.90
2018-10-03T21:03:54.714Z,13.90
2018-10-03T21:06:23.516Z,13.90
2018-10-03T21:08:52.463Z,13.90
2018-10-03T21:11:21.265Z,13.90
2018-10-03T21:13:50.362Z,13.90
2018-10-03T21:16:19.184Z,13.90
2018-10-03T21:18:48.073Z,13.90
2018-10-03T21:21:16.895Z,13.90
2018-10-03T21:23:45.664Z,13.80
2018-10-03T21:26:14.484Z,13.80
2018-10-03T21:28:43.296Z,13.80
2018-10-03T21:31:12.145Z,13.80
2018-10-03T21:33:41.059Z,13.80
2018-10-03T21:36:10.071Z,13.70
2018-10-03T21:38:38.927Z,13.70
2018-10-03T21:41:07.781Z,13.70
2018-10-03T21:43:36.631Z,13.70
2018-10-03T21:46:05.418Z,13.70
2018-10-03T21:48:34.218Z,13.70
2018-10-03T21:51:03.059Z,13.70
2018-10-03T21:53:32.205Z,13.60
2018-10-03T21:56:01.124Z,13.60
2018-10-03T21:58:30.291Z,13.60
2018-10-03T22:00:59.080Z,13.60
2018-10-03T22:03:27.868Z,13.60
2018-10-03T22:05:56.699Z,13.60
2018-10-03T22:08:25.548Z,13.60
2018-10-03T22:10:54.352Z,13.60
2018-10-03T22:13:23.178Z,13.50
2018-10-03T22:15:52.091Z,13.60
2018-10-03T22:18:20.886Z,13.50
2018-10-03T22:20:49.975Z,13.50
2018-10-03T22:23:18.775Z,13.50
2018-10-03T22:25:47.584Z,13.50
2018-10-03T22:28:16.467Z,13.40
2018-10-03T22:30:45.254Z,13.40
2018-10-03T22:33:14.059Z,13.40
2018-10-03T22:35:42.963Z,13.40
2018-10-03T22:38:11.848Z,13.40
2018-10-03T22:40:40.658Z,13.40
2018-10-03T22:43:09.849Z,13.30
2018-10-03T22:45:38.662Z,13.40
2018-10-03T22:48:14.062Z,13.30
2018-10-03T22:50:42.927Z,13.30
2018-10-03T22:53:11.727Z,13.30
2018-10-03T22:55:40.837Z,13.30
2018-10-03T22:58:09.660Z,13.30
2018-10-03T23:00:38.478Z,13.30
2018-10-03T23:03:08.428Z,13.20
2018-10-03T23:05:37.244Z,13.20
2018-10-03T23:08:06.130Z,13.30
2018-10-03T23:10:34.935Z,13.20
2018-10-03T23:13:03.743Z,13.20
2018-10-03T23:15:32.630Z,13.20
2018-10-03T23:18:01.443Z,13.20
2018-10-03T23:20:30.318Z,13.20
2018-10-03T23:22:59.147Z,13.20
2018-10-03T23:25:28.535Z,13.20
2018-10-03T23:27:57.321Z,13.20
2018-10-03T23:30:26.114Z,13.20
2018-10-03T23:32:55.047Z,13.10
2018-10-03T23:35:23.863Z,13.10
2018-10-03T23:37:52.667Z,13.10
2018-10-03T23:40:21.649Z,13.10
2018-10-03T23:42:50.516Z,13.10
2018-10-03T23:45:19.428Z,13.10
2018-10-03T23:47:48.494Z,13.10
2018-10-03T23:50:17.372Z,13.10
2018-10-03T23:52:46.185Z,13.00
2018-10-03T23:55:15.028Z,13.00
2018-10-03T23:57:44.343Z,13.00
